createdAt,value
2016-07-20T00:00:18.528Z,19.63
2016-07-20T00:00:48.550Z,19.73
2016-07-20T00:01:18.561Z,19.63
2016-07-20T00:01:48.572Z,19.62
2016-07-20T00:02:17.883Z,19.56
2016-07-20T00:02:48.604Z,19.64
2016-07-20T00:03:18.618Z,19.64
2016-07-20T00:03:48.638Z,19.63
2016-07-20T00:04:18.650Z,19.76
2016-07-20T00:04:47.957Z,19.59
2016-07-20T00:05:18.684Z,19.71
2016-07-20T00:05:48.698Z,19.63
2016-07-20T00:06:18.004Z,19.73
2016-07-20T00:06:48.738Z,19.7
2016-07-20T00:07:18.757Z,19.7
2016-07-20T00:07:48.758Z,19.67
2016-07-20T00:08:18.780Z,19.58
2016-07-20T00:08:48.786Z,19.64
2016-07-20T00:09:18.820Z,19.48
2016-07-20T00:09:48.117Z,19.47
2016-07-20T00:10:18.842Z,19.45
2016-07-20T00:10:48.854Z,19.44
2016-07-20T00:11:18.863Z,19.41
2016-07-20T00:11:48.885Z,19.39
2016-07-20T00:12:18.194Z,19.39
2016-07-20T00:12:48.200Z,19.37
2016-07-20T00:13:18.932Z,19.33
2016-07-20T00:13:48.942Z,19.33
2016-07-20T00:14:18.966Z,19.3
2016-07-20T00:14:48.972Z,19.36
2016-07-20T00:15:18.987Z,19.41
2016-07-20T00:15:49.007Z,19.4
2016-07-20T00:16:19.023Z,19.54
2016-07-20T00:16:49.033Z,19.49
2016-07-20T00:17:19.051Z,19.48
2016-07-20T00:17:49.063Z,19.52
2016-07-20T00:18:19.082Z,19.55
2016-07-20T00:18:49.094Z,19.63
2016-07-20T00:19:19.113Z,19.58
2016-07-20T00:19:49.125Z,19.58
2016-07-20T00:20:18.442Z,19.62
2016-07-20T00:20:49.154Z,19.54
2016-07-20T00:21:19.172Z,19.51
2016-07-20T00:21:49.182Z,19.39
2016-07-20T00:22:19.199Z,19.39
2016-07-20T00:22:49.218Z,19.41
2016-07-20T00:23:19.247Z,19.4
2016-07-20T00:23:49.244Z,19.37
2016-07-20T00:24:18.560Z,19.29
2016-07-20T00:24:49.277Z,19.21
2016-07-20T00:25:19.293Z,19.24
2016-07-20T00:25:49.309Z,19.27
2016-07-20T00:26:18.617Z,19.29
2016-07-20T00:26:49.335Z,19.3
2016-07-20T00:27:19.363Z,19.22
2016-07-20T00:27:49.374Z,19.22
2016-07-20T00:28:19.388Z,19.39
2016-07-20T00:28:48.693Z,19.41
2016-07-20T00:29:19.417Z,19.41
2016-07-20T00:29:49.429Z,19.44
2016-07-20T00:30:18.739Z,19.51
2016-07-20T00:30:49.461Z,19.62
2016-07-20T00:31:18.762Z,19.41
2016-07-20T00:31:48.783Z,19.41
2016-07-20T00:32:19.508Z,19.39
2016-07-20T00:32:49.533Z,19.45
2016-07-20T00:33:18.826Z,19.36
2016-07-20T00:33:49.559Z,19.29
2016-07-20T00:34:19.574Z,19.3
2016-07-20T00:34:48.873Z,19.24
2016-07-20T00:35:19.596Z,19.34
2016-07-20T00:35:48.904Z,19.24
2016-07-20T00:36:19.633Z,19.24
2016-07-20T00:36:49.643Z,19.27
2016-07-20T00:37:19.662Z,19.26
2016-07-20T00:37:49.671Z,19.22
2016-07-20T00:38:19.698Z,19.27
2016-07-20T00:38:49.729Z,19.27
2016-07-20T00:39:19.719Z,19.31
2016-07-20T00:39:49.733Z,19.29
2016-07-20T00:40:19.756Z,19.24
2016-07-20T00:40:49.769Z,19.19
2016-07-20T00:41:19.791Z,19.24
2016-07-20T00:41:49.084Z,19.31
2016-07-20T00:42:19.807Z,19.36
2016-07-20T00:42:49.829Z,19.33
2016-07-20T00:43:19.844Z,19.3
2016-07-20T00:43:49.863Z,19.36
2016-07-20T00:44:19.163Z,19.27
2016-07-20T00:44:49.890Z,19.34
2016-07-20T00:45:19.904Z,19.3
2016-07-20T00:45:49.917Z,19.3
2016-07-20T00:46:19.933Z,19.34
2016-07-20T00:46:49.945Z,19.27
2016-07-20T00:47:19.968Z,19.29
2016-07-20T00:47:49.986Z,19.26
2016-07-20T00:48:19.994Z,19.3
2016-07-20T00:48:50.024Z,19.27
2016-07-20T00:49:20.027Z,19.24
2016-07-20T00:49:50.041Z,19.36
2016-07-20T00:50:20.056Z,19.34
2016-07-20T00:50:50.074Z,19.27
2016-07-20T00:51:20.084Z,19.34
2016-07-20T00:51:50.097Z,19.31
2016-07-20T00:52:20.118Z,19.33
2016-07-20T00:52:50.134Z,19.3
2016-07-20T00:53:20.147Z,19.27
2016-07-20T00:53:50.172Z,19.12
2016-07-20T00:54:20.175Z,19.12
2016-07-20T00:54:50.191Z,19.18
2016-07-20T00:55:20.203Z,19.14
2016-07-20T00:55:50.225Z,19.11
2016-07-20T00:56:20.240Z,19.16
2016-07-20T00:56:50.256Z,19.07
2016-07-20T00:57:20.268Z,19.08
2016-07-20T00:57:49.578Z,19.09
2016-07-20T00:58:20.301Z,19.26
2016-07-20T00:58:50.318Z,19.18
2016-07-20T00:59:20.344Z,19.14
2016-07-20T00:59:49.635Z,19.19
2016-07-20T01:00:20.359Z,19.19
2016-07-20T01:00:50.379Z,19.14
2016-07-20T01:01:20.391Z,19.08
2016-07-20T01:01:50.409Z,19.04
2016-07-20T01:02:20.422Z,19.08
2016-07-20T01:02:50.436Z,19.12
2016-07-20T01:03:20.460Z,19.07
2016-07-20T01:03:50.478Z,19.14
2016-07-20T01:04:19.773Z,19.07
2016-07-20T01:04:50.499Z,19.08
2016-07-20T01:05:20.508Z,19.12
2016-07-20T01:05:50.528Z,19.08
2016-07-20T01:06:20.540Z,19.07
2016-07-20T01:06:50.555Z,19.11
2016-07-20T01:07:20.573Z,19.09
2016-07-20T01:07:50.599Z,19.07
2016-07-20T01:08:20.598Z,19.11
2016-07-20T01:08:50.627Z,19.14
2016-07-20T01:09:20.631Z,19.09
2016-07-20T01:09:49.939Z,19.04
2016-07-20T01:10:20.661Z,19.11
2016-07-20T01:10:50.674Z,19.11
2016-07-20T01:11:20.698Z,18.95
2016-07-20T01:11:50.001Z,19.07
2016-07-20T01:12:20.016Z,18.98
2016-07-20T01:12:50.740Z,18.99
2016-07-20T01:13:20.759Z,19.02
2016-07-20T01:13:50.779Z,18.86
2016-07-20T01:14:20.781Z,18.93
2016-07-20T01:14:50.799Z,18.86
2016-07-20T01:15:20.816Z,18.9
2016-07-20T01:15:50.124Z,18.92
2016-07-20T01:16:20.846Z,18.86
2016-07-20T01:16:50.870Z,18.8
2016-07-20T01:17:20.881Z,18.81
2016-07-20T01:17:50.893Z,18.74
2016-07-20T01:18:20.909Z,18.88
2016-07-20T01:18:50.920Z,18.81
2016-07-20T01:19:20.938Z,18.88
2016-07-20T01:19:50.954Z,18.9
2016-07-20T01:20:20.966Z,18.9
2016-07-20T01:20:50.982Z,18.93
2016-07-20T01:21:20.999Z,19.04
2016-07-20T01:21:51.034Z,19.02
2016-07-20T01:22:21.031Z,19.02
2016-07-20T01:22:51.054Z,19.04
2016-07-20T01:23:21.060Z,19.07
2016-07-20T01:23:51.076Z,18.99
2016-07-20T01:24:21.092Z,18.88
2016-07-20T01:24:51.111Z,18.96
2016-07-20T01:25:20.417Z,19.02
2016-07-20T01:25:51.129Z,19.07
2016-07-20T01:26:21.153Z,19.11
2016-07-20T01:26:51.170Z,19.08
2016-07-20T01:27:21.189Z,19.04
2016-07-20T01:27:51.195Z,19.07
2016-07-20T01:28:21.212Z,19.04
2016-07-20T01:28:51.226Z,19.08
2016-07-20T01:29:21.241Z,18.99
2016-07-20T01:29:51.257Z,19.08
2016-07-20T01:30:21.278Z,19.18
2016-07-20T01:30:51.283Z,19.14
2016-07-20T01:31:21.301Z,19.09
2016-07-20T01:31:51.321Z,19.08
2016-07-20T01:32:21.337Z,19.08
2016-07-20T01:32:51.343Z,19.08
2016-07-20T01:33:21.358Z,18.99
2016-07-20T01:33:51.379Z,18.95
2016-07-20T01:34:21.396Z,18.89
2016-07-20T01:34:51.409Z,18.92
2016-07-20T01:35:21.422Z,18.84
2016-07-20T01:35:51.439Z,18.81
2016-07-20T01:36:21.454Z,18.75
2016-07-20T01:36:51.472Z,18.74
2016-07-20T01:37:21.489Z,18.73
2016-07-20T01:37:51.499Z,18.75
2016-07-20T01:38:21.517Z,18.73
2016-07-20T01:38:51.538Z,18.73
2016-07-20T01:39:21.549Z,18.71
2016-07-20T01:39:51.562Z,18.74
2016-07-20T01:40:21.577Z,18.9
2016-07-20T01:40:51.588Z,18.88
2016-07-20T01:41:21.611Z,18.83
2016-07-20T01:41:51.625Z,18.78
2016-07-20T01:42:21.638Z,18.77
2016-07-20T01:42:51.646Z,18.71
2016-07-20T01:43:21.665Z,18.71
2016-07-20T01:43:50.971Z,18.68
2016-07-20T01:44:21.697Z,18.65
2016-07-20T01:44:51.709Z,18.65
2016-07-20T01:45:21.733Z,18.75
2016-07-20T01:45:51.743Z,18.68
2016-07-20T01:46:21.759Z,18.74
2016-07-20T01:46:51.773Z,18.77
2016-07-20T01:47:21.797Z,18.74
2016-07-20T01:47:51.799Z,18.73
2016-07-20T01:48:21.108Z,18.68
2016-07-20T01:48:51.846Z,18.7
2016-07-20T01:49:21.847Z,18.75
2016-07-20T01:49:51.857Z,18.81
2016-07-20T01:50:21.168Z,18.75
2016-07-20T01:50:51.188Z,18.74
2016-07-20T01:51:21.909Z,18.78
2016-07-20T01:51:51.921Z,18.81
2016-07-20T01:52:21.229Z,18.75
2016-07-20T01:52:51.951Z,18.8
2016-07-20T01:53:21.972Z,18.74
2016-07-20T01:53:51.981Z,18.75
2016-07-20T01:54:22.000Z,18.78
2016-07-20T01:54:52.017Z,18.86
2016-07-20T01:55:22.026Z,18.74
2016-07-20T01:55:52.059Z,18.9
2016-07-20T01:56:21.354Z,18.93
2016-07-20T01:56:52.068Z,18.93
2016-07-20T01:57:22.085Z,18.96
2016-07-20T01:57:52.110Z,18.9
2016-07-20T01:58:22.116Z,18.92
2016-07-20T01:58:52.149Z,18.89
2016-07-20T01:59:22.150Z,18.96
2016-07-20T01:59:52.161Z,18.88
2016-07-20T02:00:22.178Z,18.96
2016-07-20T02:00:52.192Z,18.98
2016-07-20T02:01:22.216Z,19.08
2016-07-20T02:01:52.223Z,19.08
2016-07-20T02:02:21.532Z,19.11
2016-07-20T02:02:52.254Z,19.15
2016-07-20T02:03:22.268Z,19.16
2016-07-20T02:03:52.285Z,19.29
2016-07-20T02:04:22.305Z,19.29
2016-07-20T02:05:06.500Z,19.22
2016-07-20T02:05:21.625Z,19.19
2016-07-20T02:05:52.346Z,19.18
2016-07-20T02:06:22.369Z,19.19
2016-07-20T02:06:52.375Z,19.21
2016-07-20T02:07:22.395Z,19.21
2016-07-20T02:07:52.418Z,19.29
2016-07-20T02:08:22.418Z,19.37
2016-07-20T02:08:52.439Z,19.33
2016-07-20T02:09:22.465Z,19.19
2016-07-20T02:09:52.463Z,19.16
2016-07-20T02:10:21.774Z,19.11
2016-07-20T02:10:52.496Z,19.16
2016-07-20T02:11:22.528Z,19.16
2016-07-20T02:11:52.528Z,19.26
2016-07-20T02:12:22.543Z,19.19
2016-07-20T02:12:52.556Z,19.18
2016-07-20T02:13:22.568Z,19.11
2016-07-20T02:13:52.591Z,19.12
2016-07-20T02:14:22.604Z,19.11
2016-07-20T02:14:52.617Z,19.08
2016-07-20T02:15:22.645Z,19.08
2016-07-20T02:15:52.651Z,19.04
2016-07-20T02:16:22.665Z,19.09
2016-07-20T02:16:52.685Z,19.04
2016-07-20T02:17:22.699Z,18.86
2016-07-20T02:17:51.997Z,18.86
2016-07-20T02:18:22.724Z,18.8
2016-07-20T02:18:52.739Z,18.75
2016-07-20T02:19:22.047Z,18.8
2016-07-20T02:19:52.767Z,18.88
2016-07-20T02:20:22.086Z,18.98
2016-07-20T02:20:52.801Z,18.88
2016-07-20T02:21:22.823Z,18.96
2016-07-20T02:21:52.828Z,18.9
2016-07-20T02:22:22.849Z,18.98
2016-07-20T02:22:52.862Z,18.9
2016-07-20T02:23:22.875Z,19.08
2016-07-20T02:23:52.896Z,19.11
2016-07-20T02:24:22.911Z,19.14
2016-07-20T02:24:52.917Z,19.19
2016-07-20T02:25:22.930Z,19.09
2016-07-20T02:25:52.246Z,19.16
2016-07-20T02:26:22.963Z,19.11
2016-07-20T02:26:52.986Z,19
2016-07-20T02:27:23.002Z,19.08
2016-07-20T02:27:53.008Z,19.04
2016-07-20T02:28:23.034Z,19.07
2016-07-20T02:28:53.041Z,18.96
2016-07-20T02:29:23.055Z,19.02
2016-07-20T02:29:53.070Z,19.04
2016-07-20T02:30:22.378Z,19.07
2016-07-20T02:30:53.099Z,19.07
2016-07-20T02:31:23.121Z,19.08
2016-07-20T02:31:53.141Z,19.09
2016-07-20T02:32:23.154Z,19.09
2016-07-20T02:32:53.171Z,19.07
2016-07-20T02:33:23.182Z,19.04
2016-07-20T02:33:52.488Z,19.11
2016-07-20T02:34:23.211Z,19.09
2016-07-20T02:34:53.221Z,19
2016-07-20T02:35:23.244Z,18.96
2016-07-20T02:35:53.254Z,18.99
2016-07-20T02:36:23.265Z,18.98
2016-07-20T02:36:53.290Z,19.08
2016-07-20T02:37:22.592Z,19.11
2016-07-20T02:37:53.311Z,18.98
2016-07-20T02:38:23.331Z,18.96
2016-07-20T02:38:53.347Z,18.92
2016-07-20T02:39:22.652Z,18.93
2016-07-20T02:39:53.383Z,18.9
2016-07-20T02:40:23.392Z,18.93
2016-07-20T02:40:53.402Z,18.9
2016-07-20T02:41:23.418Z,18.71
2016-07-20T02:41:53.435Z,18.8
2016-07-20T02:42:23.451Z,18.73
2016-07-20T02:42:53.472Z,18.66
2016-07-20T02:43:23.482Z,18.74
2016-07-20T02:43:53.500Z,18.73
2016-07-20T02:44:23.512Z,18.7
2016-07-20T02:44:53.527Z,18.65
2016-07-20T02:45:23.545Z,18.65
2016-07-20T02:45:53.556Z,18.63
2016-07-20T02:46:23.573Z,18.75
2016-07-20T02:46:53.593Z,18.73
2016-07-20T02:47:23.603Z,18.84
2016-07-20T02:47:53.617Z,18.93
2016-07-20T02:48:23.636Z,18.92
2016-07-20T02:48:53.651Z,18.9
2016-07-20T02:49:23.659Z,18.86
2016-07-20T02:49:53.681Z,18.88
2016-07-20T02:50:23.696Z,18.88
2016-07-20T02:50:53.711Z,18.71
2016-07-20T02:51:23.725Z,18.75
2016-07-20T02:51:53.741Z,18.77
2016-07-20T02:52:23.756Z,18.73
2016-07-20T02:52:53.767Z,18.71
2016-07-20T02:53:23.786Z,18.7
2016-07-20T02:53:53.802Z,18.74
2016-07-20T02:54:23.812Z,18.65
2016-07-20T02:54:53.845Z,18.73
2016-07-20T02:55:23.846Z,18.68
2016-07-20T02:55:53.862Z,18.65
2016-07-20T02:56:23.875Z,18.73
2016-07-20T02:56:53.901Z,18.63
2016-07-20T02:57:23.906Z,18.68
2016-07-20T02:57:53.921Z,18.71
2016-07-20T02:58:23.934Z,18.74
2016-07-20T02:58:53.953Z,18.77
2016-07-20T02:59:23.963Z,18.77
2016-07-20T02:59:53.998Z,18.77
2016-07-20T03:00:24.018Z,18.77
2016-07-20T03:00:54.016Z,18.86
2016-07-20T03:01:24.027Z,18.93
2016-07-20T03:01:54.043Z,18.89
2016-07-20T03:02:24.060Z,18.92
2016-07-20T03:02:54.071Z,18.9
2016-07-20T03:03:24.298Z,18.95
2016-07-20T03:03:54.107Z,19.04
2016-07-20T03:04:22.698Z,18.96
2016-07-20T03:04:54.133Z,19
2016-07-20T03:05:23.441Z,19.04
2016-07-20T03:05:54.163Z,18.98
2016-07-20T03:06:23.465Z,19.11
2016-07-20T03:06:54.197Z,19.04
2016-07-20T03:07:24.207Z,18.99
2016-07-20T03:07:54.223Z,19.11
2016-07-20T03:08:24.240Z,19.08
2016-07-20T03:08:54.256Z,19.04
2016-07-20T03:09:24.264Z,18.99
2016-07-20T03:09:53.569Z,18.96
2016-07-20T03:10:24.300Z,19.07
2016-07-20T03:10:54.322Z,19
2016-07-20T03:11:24.326Z,19.04
2016-07-20T03:11:54.357Z,19.07
2016-07-20T03:12:23.648Z,19.02
2016-07-20T03:12:54.372Z,19.07
2016-07-20T03:13:24.404Z,19.04
2016-07-20T03:13:54.406Z,19.04
2016-07-20T03:14:24.419Z,19.07
2016-07-20T03:14:54.433Z,19.07
2016-07-20T03:15:24.445Z,19.07
2016-07-20T03:15:53.754Z,19.07
2016-07-20T03:16:23.763Z,19.04
2016-07-20T03:16:54.492Z,18.98
2016-07-20T03:17:24.518Z,19.08
2016-07-20T03:17:54.527Z,19.02
2016-07-20T03:18:24.538Z,19.02
2016-07-20T03:18:54.554Z,19.14
2016-07-20T03:19:24.564Z,19.12
2016-07-20T03:19:54.593Z,19.08
2016-07-20T03:20:24.602Z,19.08
2016-07-20T03:20:53.911Z,19.12
2016-07-20T03:21:24.630Z,19.04
2016-07-20T03:21:54.645Z,19.09
2016-07-20T03:22:24.657Z,19.11
2016-07-20T03:22:54.677Z,19.08
2016-07-20T03:23:24.690Z,19.18
2016-07-20T03:23:54.713Z,19.11
2016-07-20T03:24:24.717Z,19.15
2016-07-20T03:24:54.734Z,19.08
2016-07-20T03:25:24.754Z,18.96
2016-07-20T03:25:54.055Z,19.14
2016-07-20T03:26:24.780Z,19.12
2016-07-20T03:26:54.803Z,19.09
2016-07-20T03:27:24.807Z,18.95
2016-07-20T03:27:54.825Z,19
2016-07-20T03:28:24.134Z,19.02
2016-07-20T03:28:54.854Z,19.02
2016-07-20T03:29:24.873Z,19.04
2016-07-20T03:29:54.893Z,19.09
2016-07-20T03:30:24.897Z,19.14
2016-07-20T03:30:54.922Z,19.12
2016-07-20T03:31:24.933Z,18.98
2016-07-20T03:31:54.953Z,19.02
2016-07-20T03:32:24.969Z,19.07
2016-07-20T03:32:54.977Z,19.12
2016-07-20T03:33:24.999Z,19.08
2016-07-20T03:33:55.004Z,18.98
2016-07-20T03:34:24.312Z,19.04
2016-07-20T03:34:55.045Z,19.08
2016-07-20T03:35:25.049Z,19.02
2016-07-20T03:35:55.068Z,18.88
2016-07-20T03:36:25.091Z,18.95
2016-07-20T03:36:54.392Z,18.93
2016-07-20T03:37:24.405Z,18.88
2016-07-20T03:37:55.138Z,19.02
2016-07-20T03:38:25.142Z,18.96
2016-07-20T03:38:55.169Z,18.98
2016-07-20T03:39:25.175Z,19.04
2016-07-20T03:39:54.479Z,19.04
2016-07-20T03:40:24.502Z,18.99
2016-07-20T03:40:54.514Z,19.02
2016-07-20T03:41:25.244Z,19.08
2016-07-20T03:41:55.255Z,19.04
2016-07-20T03:42:25.266Z,19.04
2016-07-20T03:42:55.280Z,18.92
2016-07-20T03:43:25.300Z,18.9
2016-07-20T03:43:55.312Z,18.92
2016-07-20T03:44:25.325Z,18.92
2016-07-20T03:44:55.337Z,18.95
2016-07-20T03:45:25.356Z,18.95
2016-07-20T03:45:55.376Z,18.98
2016-07-20T03:46:25.384Z,18.96
2016-07-20T03:46:55.406Z,18.92
2016-07-20T03:47:25.412Z,18.98
2016-07-20T03:47:55.435Z,18.99
2016-07-20T03:48:25.447Z,18.88
2016-07-20T03:48:55.464Z,18.92
2016-07-20T03:49:25.475Z,18.9
2016-07-20T03:49:55.500Z,18.92
2016-07-20T03:50:25.508Z,18.88
2016-07-20T03:50:55.520Z,18.86
2016-07-20T03:51:25.534Z,18.88
2016-07-20T03:51:55.563Z,18.84
2016-07-20T03:52:25.562Z,18.78
2016-07-20T03:52:55.586Z,18.88
2016-07-20T03:53:25.601Z,18.86
2016-07-20T03:53:55.616Z,18.96
2016-07-20T03:54:25.627Z,18.95
2016-07-20T03:54:54.935Z,19
2016-07-20T03:55:25.655Z,18.93
2016-07-20T03:55:55.678Z,18.93
2016-07-20T03:56:25.687Z,18.95
2016-07-20T03:56:55.704Z,19.04
2016-07-20T03:57:25.722Z,19
2016-07-20T03:57:55.737Z,19.04
2016-07-20T03:58:25.759Z,19.14
2016-07-20T03:58:55.765Z,19.12
2016-07-20T03:59:25.786Z,19.19
2016-07-20T03:59:55.797Z,19.24
2016-07-20T04:00:25.821Z,19.33
2016-07-20T04:00:55.828Z,19.36
2016-07-20T04:01:25.851Z,19.54
2016-07-20T04:01:55.859Z,19.58
2016-07-20T04:02:25.877Z,19.62
2016-07-20T04:02:55.179Z,19.62
2016-07-20T04:03:25.905Z,19.66
2016-07-20T04:03:55.916Z,19.76
2016-07-20T04:04:25.931Z,19.89
2016-07-20T04:04:54.530Z,20.02
2016-07-20T04:05:40.145Z,20.19
2016-07-20T04:05:55.976Z,20.24
2016-07-20T04:06:24.574Z,20.11
2016-07-20T04:06:56.004Z,19.89
2016-07-20T04:07:26.019Z,19.86
2016-07-20T04:07:56.039Z,19.89
2016-07-20T04:08:26.056Z,19.84
2016-07-20T04:08:56.071Z,19.86
2016-07-20T04:09:26.087Z,19.86
2016-07-20T04:09:56.101Z,19.88
2016-07-20T04:10:26.117Z,19.81
2016-07-20T04:10:56.127Z,19.81
2016-07-20T04:11:26.145Z,19.82
2016-07-20T04:11:55.459Z,19.7
2016-07-20T04:12:26.180Z,19.84
2016-07-20T04:12:56.187Z,19.73
2016-07-20T04:13:26.206Z,19.76
2016-07-20T04:13:56.216Z,19.64
2016-07-20T04:14:26.240Z,19.59
2016-07-20T04:14:55.541Z,19.7
2016-07-20T04:15:26.267Z,19.59
2016-07-20T04:15:56.277Z,19.64
2016-07-20T04:16:26.305Z,19.59
2016-07-20T04:16:55.600Z,19.73
2016-07-20T04:17:26.326Z,19.73
2016-07-20T04:17:56.336Z,19.73
2016-07-20T04:18:26.368Z,19.74
2016-07-20T04:18:56.367Z,19.81
2016-07-20T04:19:26.387Z,19.82
2016-07-20T04:19:56.401Z,19.81
2016-07-20T04:20:26.421Z,19.81
2016-07-20T04:20:56.429Z,19.84
2016-07-20T04:21:26.448Z,19.84
2016-07-20T04:21:56.460Z,19.85
2016-07-20T04:22:26.480Z,19.88
2016-07-20T04:22:56.492Z,19.81
2016-07-20T04:23:26.512Z,19.82
2016-07-20T04:23:55.818Z,19.76
2016-07-20T04:24:26.538Z,19.7
2016-07-20T04:24:56.553Z,19.77
2016-07-20T04:25:26.577Z,19.76
2016-07-20T04:25:56.579Z,19.82
2016-07-20T04:26:26.600Z,19.84
2016-07-20T04:26:56.617Z,19.74
2016-07-20T04:27:26.636Z,19.84
2016-07-20T04:27:56.641Z,19.94
2016-07-20T04:28:26.664Z,20.03
2016-07-20T04:28:56.671Z,20.04
2016-07-20T04:29:26.698Z,20.1
2016-07-20T04:29:56.719Z,20.06
2016-07-20T04:30:26.722Z,20.09
2016-07-20T04:30:56.735Z,20.06
2016-07-20T04:31:26.760Z,19.99
2016-07-20T04:31:56.778Z,20.02
2016-07-20T04:32:26.788Z,20.06
2016-07-20T04:32:56.798Z,20.06
2016-07-20T04:33:26.816Z,20.13
2016-07-20T04:33:56.828Z,20.13
2016-07-20T04:34:26.847Z,20.11
2016-07-20T04:34:56.856Z,20.21
2016-07-20T04:35:26.881Z,20.13
2016-07-20T04:35:56.887Z,20.11
2016-07-20T04:36:26.907Z,20.19
2016-07-20T04:36:56.919Z,20.09
2016-07-20T04:37:26.932Z,20.21
2016-07-20T04:37:56.951Z,20.09
2016-07-20T04:38:26.969Z,20.13
2016-07-20T04:38:56.983Z,20.22
2016-07-20T04:39:26.291Z,20.24
2016-07-20T04:39:57.018Z,20.19
2016-07-20T04:40:27.029Z,20.19
2016-07-20T04:40:57.044Z,20.31
2016-07-20T04:41:27.060Z,20.31
2016-07-20T04:41:57.078Z,20.32
2016-07-20T04:42:27.088Z,20.29
2016-07-20T04:42:57.107Z,20.34
2016-07-20T04:43:27.119Z,20.4
2016-07-20T04:43:57.141Z,20.48
2016-07-20T04:44:27.154Z,20.44
2016-07-20T04:44:57.168Z,20.44
2016-07-20T04:45:27.193Z,20.4
2016-07-20T04:45:57.197Z,20.47
2016-07-20T04:46:27.213Z,20.48
2016-07-20T04:46:57.244Z,20.4
2016-07-20T04:47:27.240Z,20.55
2016-07-20T04:47:57.253Z,20.52
2016-07-20T04:48:27.269Z,20.51
2016-07-20T04:48:57.294Z,20.56
2016-07-20T04:49:27.299Z,20.58
2016-07-20T04:49:57.321Z,20.58
2016-07-20T04:50:27.334Z,20.69
2016-07-20T04:50:57.350Z,20.66
2016-07-20T04:51:27.358Z,20.62
2016-07-20T04:51:56.674Z,20.63
2016-07-20T04:52:27.410Z,20.62
2016-07-20T04:52:56.698Z,20.69
2016-07-20T04:53:27.424Z,20.7
2016-07-20T04:53:57.443Z,20.7
2016-07-20T04:54:27.453Z,20.65
2016-07-20T04:54:57.468Z,20.67
2016-07-20T04:55:26.778Z,20.65
2016-07-20T04:55:57.507Z,20.66
2016-07-20T04:56:27.514Z,20.72
2016-07-20T04:56:57.535Z,20.7
2016-07-20T04:57:27.551Z,20.85
2016-07-20T04:57:57.562Z,20.8
2016-07-20T04:58:27.576Z,20.85
2016-07-20T04:58:57.594Z,20.78
2016-07-20T04:59:27.611Z,20.85
2016-07-20T04:59:57.625Z,20.87
2016-07-20T05:00:27.640Z,20.92
2016-07-20T05:00:57.661Z,20.85
2016-07-20T05:01:27.668Z,20.97
2016-07-20T05:01:57.689Z,20.97
2016-07-20T05:02:27.713Z,20.92
2016-07-20T05:02:57.005Z,20.95
2016-07-20T05:03:27.730Z,20.99
2016-07-20T05:03:57.751Z,21.05
2016-07-20T05:04:27.769Z,21.03
2016-07-20T05:04:57.779Z,20.99
2016-07-20T05:05:27.800Z,21
2016-07-20T05:05:57.809Z,20.99
2016-07-20T05:06:27.824Z,21.14
2016-07-20T05:06:57.839Z,21.15
2016-07-20T05:07:27.859Z,21.15
2016-07-20T05:07:57.888Z,21.14
2016-07-20T05:08:27.903Z,21.15
2016-07-20T05:08:57.905Z,21.09
2016-07-20T05:09:27.923Z,21.12
2016-07-20T05:09:57.929Z,21.07
2016-07-20T05:10:27.958Z,21.12
2016-07-20T05:10:57.260Z,21.17
2016-07-20T05:11:27.983Z,21.14
2016-07-20T05:11:57.995Z,21.18
2016-07-20T05:12:28.011Z,21.12
2016-07-20T05:12:58.030Z,21.18
2016-07-20T05:13:28.040Z,21.24
2016-07-20T05:13:58.053Z,21.2
2016-07-20T05:14:27.364Z,21.32
2016-07-20T05:14:58.088Z,21.4
2016-07-20T05:15:28.111Z,21.37
2016-07-20T05:15:58.119Z,21.27
2016-07-20T05:16:27.424Z,21.3
2016-07-20T05:16:58.145Z,21.39
2016-07-20T05:17:27.459Z,21.42
2016-07-20T05:17:58.191Z,21.4
2016-07-20T05:18:28.194Z,21.36
2016-07-20T05:18:58.210Z,21.46
2016-07-20T05:19:28.224Z,21.32
2016-07-20T05:19:58.245Z,21.37
2016-07-20T05:20:28.263Z,21.42
2016-07-20T05:20:58.287Z,21.48
2016-07-20T05:21:28.291Z,21.48
2016-07-20T05:21:57.597Z,21.51
2016-07-20T05:22:28.324Z,21.48
2016-07-20T05:22:58.339Z,21.5
2016-07-20T05:23:28.350Z,21.54
2016-07-20T05:23:58.369Z,21.54
2016-07-20T05:24:28.379Z,21.57
2016-07-20T05:24:58.399Z,21.52
2016-07-20T05:25:28.415Z,21.6
2016-07-20T05:25:58.431Z,21.6
2016-07-20T05:26:28.447Z,21.55
2016-07-20T05:26:58.459Z,21.6
2016-07-20T05:27:28.473Z,21.61
2016-07-20T05:27:58.495Z,21.58
2016-07-20T05:28:28.510Z,21.7
2016-07-20T05:28:58.521Z,21.64
2016-07-20T05:29:28.538Z,21.62
2016-07-20T05:29:58.549Z,21.73
2016-07-20T05:30:27.857Z,21.76
2016-07-20T05:30:57.880Z,21.85
2016-07-20T05:31:28.619Z,21.76
2016-07-20T05:31:57.905Z,21.8
2016-07-20T05:32:28.632Z,21.89
2016-07-20T05:32:58.652Z,21.83
2016-07-20T05:33:28.666Z,21.88
2016-07-20T05:33:57.967Z,21.96
2016-07-20T05:34:28.708Z,21.96
2016-07-20T05:34:58.714Z,22.04
2016-07-20T05:35:27.313Z,21.96
2016-07-20T05:35:58.744Z,22
2016-07-20T05:36:28.762Z,21.96
2016-07-20T05:36:58.771Z,22
2016-07-20T05:37:28.790Z,22.02
2016-07-20T05:37:58.806Z,22
2016-07-20T05:38:28.827Z,22.06
2016-07-20T05:38:58.837Z,22.04
2016-07-20T05:39:28.856Z,22.07
2016-07-20T05:39:58.864Z,22.1
2016-07-20T05:40:28.886Z,22.02
2016-07-20T05:40:58.915Z,22.07
2016-07-20T05:41:28.912Z,22.11
2016-07-20T05:41:58.925Z,22.11
2016-07-20T05:42:28.952Z,22.22
2016-07-20T05:42:58.961Z,22.11
2016-07-20T05:43:28.974Z,22.23
2016-07-20T05:43:58.285Z,22.22
2016-07-20T05:44:29.011Z,22.23
2016-07-20T05:44:59.022Z,22.22
2016-07-20T05:45:29.044Z,22.3
2016-07-20T05:45:59.075Z,22.32
2016-07-20T05:46:29.083Z,22.29
2016-07-20T05:46:59.086Z,22.3
2016-07-20T05:47:29.102Z,22.28
2016-07-20T05:47:59.128Z,22.33
2016-07-20T05:48:29.136Z,22.39
2016-07-20T05:48:59.162Z,22.48
2016-07-20T05:49:29.164Z,22.45
2016-07-20T05:49:59.182Z,22.39
2016-07-20T05:50:29.201Z,22.44
2016-07-20T05:50:59.218Z,22.44
2016-07-20T05:51:29.228Z,22.48
2016-07-20T05:51:59.241Z,22.43
2016-07-20T05:52:29.257Z,22.57
2016-07-20T05:52:59.270Z,22.5
2016-07-20T05:53:28.585Z,22.55
2016-07-20T05:53:59.308Z,22.55
2016-07-20T05:54:29.319Z,22.59
2016-07-20T05:54:58.629Z,22.53
2016-07-20T05:55:28.650Z,22.63
2016-07-20T05:55:59.385Z,22.69
2016-07-20T05:56:29.385Z,22.7
2016-07-20T05:56:59.405Z,22.75
2016-07-20T05:57:28.712Z,22.76
2016-07-20T05:57:59.432Z,22.7
2016-07-20T05:58:29.453Z,22.73
2016-07-20T05:58:58.758Z,22.72
2016-07-20T05:59:29.482Z,22.83
2016-07-20T05:59:59.500Z,22.84
2016-07-20T06:00:29.516Z,22.85
2016-07-20T06:00:59.524Z,22.84
2016-07-20T06:01:29.551Z,22.87
2016-07-20T06:01:59.562Z,22.85
2016-07-20T06:02:29.584Z,22.94
2016-07-20T06:02:59.588Z,22.94
2016-07-20T06:03:29.614Z,22.91
2016-07-20T06:03:59.633Z,22.98
2016-07-20T06:04:29.643Z,22.93
2016-07-20T06:04:59.654Z,23.02
2016-07-20T06:05:29.670Z,22.99
2016-07-20T06:05:58.975Z,23.05
2016-07-20T06:06:29.716Z,22.98
2016-07-20T06:06:59.723Z,23
2016-07-20T06:07:29.748Z,23.08
2016-07-20T06:07:59.752Z,23.13
2016-07-20T06:08:29.767Z,23.12
2016-07-20T06:08:59.787Z,23.13
2016-07-20T06:09:29.797Z,23.21
2016-07-20T06:09:59.814Z,23.08
2016-07-20T06:10:29.827Z,23.12
2016-07-20T06:10:59.842Z,23.21
2016-07-20T06:11:29.859Z,23.18
2016-07-20T06:11:59.880Z,23.23
2016-07-20T06:12:29.887Z,23.21
2016-07-20T06:12:59.914Z,23.32
2016-07-20T06:13:29.923Z,23.34
2016-07-20T06:13:59.939Z,23.4
2016-07-20T06:14:28.534Z,23.39
2016-07-20T06:14:59.974Z,23.37
2016-07-20T06:15:29.989Z,23.37
2016-07-20T06:16:00.002Z,23.36
2016-07-20T06:16:30.029Z,23.47
2016-07-20T06:17:00.039Z,23.48
2016-07-20T06:17:30.054Z,23.47
2016-07-20T06:18:00.064Z,23.51
2016-07-20T06:18:30.087Z,23.63
2016-07-20T06:19:00.096Z,23.47
2016-07-20T06:19:30.123Z,23.48
2016-07-20T06:20:00.132Z,23.48
2016-07-20T06:20:30.147Z,23.46
2016-07-20T06:21:00.172Z,23.56
2016-07-20T06:21:30.185Z,23.58
2016-07-20T06:22:00.194Z,23.68
2016-07-20T06:22:30.211Z,23.68
2016-07-20T06:23:00.226Z,23.71
2016-07-20T06:23:30.249Z,23.77
2016-07-20T06:24:00.259Z,23.81
2016-07-20T06:24:30.275Z,23.81
2016-07-20T06:25:00.296Z,23.84
2016-07-20T06:25:28.889Z,23.86
2016-07-20T06:26:00.325Z,23.86
2016-07-20T06:26:30.337Z,24.05
2016-07-20T06:26:59.645Z,24.05
2016-07-20T06:27:29.662Z,24.02
2016-07-20T06:28:00.396Z,24.1